sensor_id;sensor_type;location;lat;lon;timestamp;pressure;altitude;pressure_sealevel;temperature;humidity
71638;BME280;59485;43.542;-5.676;2023-02-12T00:01:25;102797.63;;;5.29;100.00
71638;BME280;59485;43.542;-5.676;2023-02-12T00:03:52;102807.22;;;5.35;100.00
71638;BME280;59485;43.542;-5.676;2023-02-12T00:06:18;102811.53;;;5.37;100.00
71638;BME280;59485;43.542;-5.676;2023-02-12T00:08:43;102802.41;;;5.38;100.00
71638;BME280;59485;43.542;-5.676;2023-02-12T00:11:18;102802.41;;;5.38;100.00
71638;BME280;59485;43.542;-5.676;2023-02-12T00:16:12;102794.81;;;5.43;100.00
71638;BME280;59485;43.542;-5.676;2023-02-12T00:18:38;102795.03;;;5.40;100.00
71638;BME280;59485;43.542;-5.676;2023-02-12T00:21:04;102798.06;;;5.36;100.00
71638;BME280;59485;43.542;-5.676;2023-02-12T00:23:29;102794.03;;;5.28;100.00
71638;BME280;59485;43.542;-5.676;2023-02-12T00:25:55;102799.69;;;5.25;100.00
71638;BME280;59485;43.542;-5.676;2023-02-12T00:28:20;102801.63;;;5.23;100.00
71638;BME280;59485;43.542;-5.676;2023-02-12T00:30:53;102806.53;;;5.18;100.00
71638;BME280;59485;43.542;-5.676;2023-02-12T00:33:19;102793.03;;;5.17;100.00
71638;BME280;59485;43.542;-5.676;2023-02-12T00:35:44;102795.75;;;5.17;100.00
71638;BME280;59485;43.542;-5.676;2023-02-12T00:38:09;102798.38;;;5.18;100.00
71638;BME280;59485;43.542;-5.676;2023-02-12T00:40:35;102791.63;;;5.24;100.00
71638;BME280;59485;43.542;-5.676;2023-02-12T00:43:00;102795.22;;;5.24;100.00
71638;BME280;59485;43.542;-5.676;2023-02-12T00:45:25;102795.88;;;5.28;100.00
71638;BME280;59485;43.542;-5.676;2023-02-12T00:47:51;102793.81;;;5.32;100.00
71638;BME280;59485;43.542;-5.676;2023-02-12T00:50:16;102786.53;;;5.32;100.00
71638;BME280;59485;43.542;-5.676;2023-02-12T00:52:41;102786.31;;;5.35;100.00
71638;BME280;59485;43.542;-5.676;2023-02-12T00:55:07;102791.53;;;5.38;100.00
71638;BME280;59485;43.542;-5.676;2023-02-12T00:57:35;102785.13;;;5.39;100.00
71638;BME280;59485;43.542;-5.676;2023-02-12T01:00:23;102793.28;;;5.39;100.00
71638;BME280;59485;43.542;-5.676;2023-02-12T01:05:36;102784.78;;;5.31;100.00
71638;BME280;59485;43.542;-5.676;2023-02-12T01:08:01;102786.97;;;5.26;100.00
71638;BME280;59485;43.542;-5.676;2023-02-12T01:10:27;102784.88;;;5.17;100.00
71638;BME280;59485;43.542;-5.676;2023-02-12T01:12:53;102781.41;;;5.15;100.00
71638;BME280;59485;43.542;-5.676;2023-02-12T01:15:18;102776.94;;;5.14;100.00
71638;BME280;59485;43.542;-5.676;2023-02-12T01:17:44;102778.88;;;5.12;100.00
71638;BME280;59485;43.542;-5.676;2023-02-12T01:20:14;102784.75;;;5.06;100.00
71638;BME280;59485;43.542;-5.676;2023-02-12T01:22:41;102782.22;;;5.03;100.00
71638;BME280;59485;43.542;-5.676;2023-02-12T01:37:57;102795.56;;;4.80;100.00
71638;BME280;59485;43.542;-5.676;2023-02-12T01:43:19;102794.00;;;4.76;100.00
71638;BME280;59485;43.542;-5.676;2023-02-12T01:45:45;102803.13;;;4.75;100.00
71638;BME280;59485;43.542;-5.676;2023-02-12T01:48:12;102796.72;;;4.76;100.00
71638;BME280;59485;43.542;-5.676;2023-02-12T02:01:05;102804.22;;;4.73;100.00
71638;BME280;59485;43.542;-5.676;2023-02-12T02:03:33;102800.63;;;4.72;100.00
71638;BME280;59485;43.542;-5.676;2023-02-12T02:13:38;102809.16;;;4.66;100.00
71638;BME280;59485;43.542;-5.676;2023-02-12T02:26:49;102796.16;;;4.71;100.00
71638;BME280;59485;43.542;-5.676;2023-02-12T02:45:30;102778.47;;;4.78;100.00
71638;BME280;59485;43.542;-5.676;2023-02-12T02:47:59;102775.56;;;4.81;100.00
71638;BME280;59485;43.542;-5.676;2023-02-12T02:50:27;102777.31;;;4.82;100.00
71638;BME280;59485;43.542;-5.676;2023-02-12T02:52:59;102774.59;;;4.82;100.00
71638;BME280;59485;43.542;-5.676;2023-02-12T02:58:44;102774.16;;;4.88;100.00
71638;BME280;59485;43.542;-5.676;2023-02-12T03:01:16;102777.75;;;4.89;100.00
71638;BME280;59485;43.542;-5.676;2023-02-12T03:09:25;102786.63;;;4.78;100.00
71638;BME280;59485;43.542;-5.676;2023-02-12T03:11:52;102785.06;;;4.74;100.00
71638;BME280;59485;43.542;-5.676;2023-02-12T03:27:23;102777.31;;;4.56;100.00
71638;BME280;59485;43.542;-5.676;2023-02-12T03:29:50;102772.97;;;4.53;100.00
71638;BME280;59485;43.542;-5.676;2023-02-12T03:35:06;102772.19;;;4.51;100.00
71638;BME280;59485;43.542;-5.676;2023-02-12T03:37:34;102770.53;;;4.48;100.00
71638;BME280;59485;43.542;-5.676;2023-02-12T03:40:06;102773.38;;;4.47;100.00
71638;BME280;59485;43.542;-5.676;2023-02-12T03:50:29;102762.91;;;4.41;100.00
71638;BME280;59485;43.542;-5.676;2023-02-12T03:52:57;102760.28;;;4.39;100.00
71638;BME280;59485;43.542;-5.676;2023-02-12T03:55:25;102768.44;;;4.39;100.00
71638;BME280;59485;43.542;-5.676;2023-02-12T03:57:54;102759.53;;;4.37;100.00
71638;BME280;59485;43.542;-5.676;2023-02-12T04:00:23;102755.94;;;4.37;100.00
71638;BME280;59485;43.542;-5.676;2023-02-12T04:02:49;102771.47;;;4.35;100.00
71638;BME280;59485;43.542;-5.676;2023-02-12T04:05:17;102767.97;;;4.33;100.00
71638;BME280;59485;43.542;-5.676;2023-02-12T04:07:43;102761.75;;;4.31;100.00
71638;BME280;59485;43.542;-5.676;2023-02-12T04:10:08;102771.09;;;4.27;100.00
71638;BME280;59485;43.542;-5.676;2023-02-12T04:20:41;102778.50;;;4.10;100.00
71638;BME280;59485;43.542;-5.676;2023-02-12T04:31:12;102775.13;;;3.93;100.00
71638;BME280;59485;43.542;-5.676;2023-02-12T04:33:48;102783.53;;;3.88;100.00
71638;BME280;59485;43.542;-5.676;2023-02-12T04:36:41;102781.03;;;3.85;100.00
71638;BME280;59485;43.542;-5.676;2023-02-12T04:39:10;102782.88;;;3.85;100.00
71638;BME280;59485;43.542;-5.676;2023-02-12T04:41:37;102786.56;;;3.84;100.00
71638;BME280;59485;43.542;-5.676;2023-02-12T04:44:13;102788.03;;;3.75;100.00
71638;BME280;59485;43.542;-5.676;2023-02-12T04:46:38;102790.13;;;3.70;100.00
71638;BME280;59485;43.542;-5.676;2023-02-12T04:49:04;102798.66;;;3.78;100.00
71638;BME280;59485;43.542;-5.676;2023-02-12T04:51:31;102784.13;;;3.79;100.00
71638;BME280;59485;43.542;-5.676;2023-02-12T04:53:59;102791.47;;;3.77;100.00
71638;BME280;59485;43.542;-5.676;2023-02-12T04:56:27;102788.91;;;3.75;100.00
71638;BME280;59485;43.542;-5.676;2023-02-12T04:58:53;102787.72;;;3.80;100.00
71638;BME280;59485;43.542;-5.676;2023-02-12T05:01:21;102799.16;;;3.85;100.00
71638;BME280;59485;43.542;-5.676;2023-02-12T05:03:47;102799.44;;;3.80;100.00
71638;BME280;59485;43.542;-5.676;2023-02-12T05:06:12;102798.88;;;3.75;100.00
71638;BME280;59485;43.542;-5.676;2023-02-12T05:11:27;102795.00;;;3.65;100.00
71638;BME280;59485;43.542;-5.676;2023-02-12T05:16:50;102793.63;;;3.58;100.00
71638;BME280;59485;43.542;-5.676;2023-02-12T05:19:15;102797.75;;;3.49;100.00
71638;BME280;59485;43.542;-5.676;2023-02-12T05:21:50;102794.00;;;3.52;100.00
71638;BME280;59485;43.542;-5.676;2023-02-12T05:24:15;102794.00;;;3.52;100.00
71638;BME280;59485;43.542;-5.676;2023-02-12T05:26:41;102792.53;;;3.46;100.00
71638;BME280;59485;43.542;-5.676;2023-02-12T05:29:06;102796.31;;;3.44;100.00
71638;BME280;59485;43.542;-5.676;2023-02-12T05:34:07;102798.06;;;3.45;100.00
71638;BME280;59485;43.542;-5.676;2023-02-12T05:42:15;102814.22;;;3.46;100.00
71638;BME280;59485;43.542;-5.676;2023-02-12T05:47:57;102803.19;;;3.49;100.00
71638;BME280;59485;43.542;-5.676;2023-02-12T05:53:26;102793.22;;;3.50;100.00
71638;BME280;59485;43.542;-5.676;2023-02-12T05:55:51;102808.59;;;3.49;100.00
71638;BME280;59485;43.542;-5.676;2023-02-12T06:01:22;102802.81;;;3.55;100.00
71638;BME280;59485;43.542;-5.676;2023-02-12T06:03:47;102810.25;;;3.52;100.00
71638;BME280;59485;43.542;-5.676;2023-02-12T06:06:13;102811.69;;;3.43;100.00
71638;BME280;59485;43.542;-5.676;2023-02-12T06:08:38;102811.78;;;3.42;100.00
71638;BME280;59485;43.542;-5.676;2023-02-12T06:11:05;102808.13;;;3.43;100.00
71638;BME280;59485;43.542;-5.676;2023-02-12T06:13:31;102818.88;;;3.44;100.00
71638;BME280;59485;43.542;-5.676;2023-02-12T06:15:56;102819.66;;;3.46;100.00
71638;BME280;59485;43.542;-5.676;2023-02-12T06:18:22;102810.66;;;3.46;100.00
71638;BME280;59485;43.542;-5.676;2023-02-12T06:20:47;102823.41;;;3.44;100.00
71638;BME280;59485;43.542;-5.676;2023-02-12T06:23:13;102818.09;;;3.42;100.00
71638;BME280;59485;43.542;-5.676;2023-02-12T06:25:38;102812.75;;;3.40;100.00
71638;BME280;59485;43.542;-5.676;2023-02-12T06:28:03;102813.75;;;3.39;100.00
71638;BME280;59485;43.542;-5.676;2023-02-12T06:30:29;102812.75;;;3.40;100.00
71638;BME280;59485;43.542;-5.676;2023-02-12T06:32:55;102815.66;;;3.37;100.00
71638;BME280;59485;43.542;-5.676;2023-02-12T06:35:21;102815.47;;;3.40;100.00
71638;BME280;59485;43.542;-5.676;2023-02-12T06:37:46;102809.88;;;3.44;100.00
71638;BME280;59485;43.542;-5.676;2023-02-12T06:40:12;102816.16;;;3.44;100.00
71638;BME280;59485;43.542;-5.676;2023-02-12T06:42:37;102822.53;;;3.43;100.00
71638;BME280;59485;43.542;-5.676;2023-02-12T06:45:03;102817.03;;;3.45;100.00
71638;BME280;59485;43.542;-5.676;2023-02-12T06:47:28;102817.81;;;3.47;100.00
71638;BME280;59485;43.542;-5.676;2023-02-12T06:49:53;102822.38;;;3.46;100.00
71638;BME280;59485;43.542;-5.676;2023-02-12T06:52:19;102818.38;;;3.37;100.00
71638;BME280;59485;43.542;-5.676;2023-02-12T06:54:45;102825.16;;;3.30;100.00
71638;BME280;59485;43.542;-5.676;2023-02-12T06:57:11;102819.03;;;3.27;100.00
71638;BME280;59485;43.542;-5.676;2023-02-12T06:59:36;102821.59;;;3.14;100.00
71638;BME280;59485;43.542;-5.676;2023-02-12T07:02:01;102818.38;;;3.08;100.00
71638;BME280;59485;43.542;-5.676;2023-02-12T07:04:27;102832.97;;;3.05;100.00
71638;BME280;59485;43.542;-5.676;2023-02-12T07:06:52;102827.31;;;3.10;100.00
71638;BME280;59485;43.542;-5.676;2023-02-12T07:09:17;102837.44;;;3.06;100.00
71638;BME280;59485;43.542;-5.676;2023-02-12T07:11:43;102840.84;;;3.10;100.00
71638;BME280;59485;43.542;-5.676;2023-02-12T07:14:14;102839.38;;;3.04;100.00
71638;BME280;59485;43.542;-5.676;2023-02-12T07:16:40;102844.59;;;3.07;100.00
71638;BME280;59485;43.542;-5.676;2023-02-12T07:19:06;102859.09;;;3.06;100.00
71638;BME280;59485;43.542;-5.676;2023-02-12T07:21:34;102857.09;;;3.10;100.00
71638;BME280;59485;43.542;-5.676;2023-02-12T07:23:59;102855.44;;;3.07;100.00
71638;BME280;59485;43.542;-5.676;2023-02-12T07:26:25;102862.69;;;3.07;100.00
71638;BME280;59485;43.542;-5.676;2023-02-12T07:28:50;102863.56;;;3.07;100.00
71638;BME280;59485;43.542;-5.676;2023-02-12T07:31:19;102866.97;;;3.11;100.00
71638;BME280;59485;43.542;-5.676;2023-02-12T07:33:45;102862.66;;;3.22;100.00
71638;BME280;59485;43.542;-5.676;2023-02-12T07:36:12;102857.84;;;3.27;100.00
71638;BME280;59485;43.542;-5.676;2023-02-12T07:38:37;102865.00;;;3.28;100.00
71638;BME280;59485;43.542;-5.676;2023-02-12T07:43:35;102863.59;;;3.37;100.00
71638;BME280;59485;43.542;-5.676;2023-02-12T07:46:11;102866.88;;;3.42;100.00
71638;BME280;59485;43.542;-5.676;2023-02-12T07:48:36;102868.63;;;3.43;100.00
71638;BME280;59485;43.542;-5.676;2023-02-12T07:51:03;102865.13;;;3.41;100.00
71638;BME280;59485;43.542;-5.676;2023-02-12T07:53:29;102875.09;;;3.40;100.00
71638;BME280;59485;43.542;-5.676;2023-02-12T07:55:54;102866.00;;;3.42;100.00
71638;BME280;59485;43.542;-5.676;2023-02-12T08:00:52;102864.06;;;3.44;100.00
71638;BME280;59485;43.542;-5.676;2023-02-12T08:03:29;102875.25;;;3.53;100.00
71638;BME280;59485;43.542;-5.676;2023-02-12T08:05:55;102877.38;;;3.62;100.00
71638;BME280;59485;43.542;-5.676;2023-02-12T08:08:20;102884.47;;;3.65;100.00
71638;BME280;59485;43.542;-5.676;2023-02-12T08:10:45;102877.88;;;3.69;100.00
71638;BME280;59485;43.542;-5.676;2023-02-12T08:13:11;102876.53;;;3.76;100.00
71638;BME280;59485;43.542;-5.676;2023-02-12T08:15:36;102874.41;;;3.81;100.00
71638;BME280;59485;43.542;-5.676;2023-02-12T08:18:01;102870.25;;;3.90;100.00
71638;BME280;59485;43.542;-5.676;2023-02-12T08:20:27;102873.28;;;3.99;100.00
71638;BME280;59485;43.542;-5.676;2023-02-12T08:22:52;102864.72;;;4.05;100.00
71638;BME280;59485;43.542;-5.676;2023-02-12T08:25:19;102872.59;;;4.10;100.00
71638;BME280;59485;43.542;-5.676;2023-02-12T08:27:45;102876.75;;;4.15;100.00
71638;BME280;59485;43.542;-5.676;2023-02-12T08:30:10;102872.78;;;4.21;100.00
71638;BME280;59485;43.542;-5.676;2023-02-12T08:32:36;102883.34;;;4.26;100.00
71638;BME280;59485;43.542;-5.676;2023-02-12T08:35:01;102875.69;;;4.32;100.00
71638;BME280;59485;43.542;-5.676;2023-02-12T08:37:26;102872.47;;;4.40;100.00
71638;BME280;59485;43.542;-5.676;2023-02-12T08:39:52;102879.47;;;4.44;100.00
71638;BME280;59485;43.542;-5.676;2023-02-12T08:42:17;102876.25;;;4.51;100.00
71638;BME280;59485;43.542;-5.676;2023-02-12T08:44:42;102877.38;;;4.62;100.00
71638;BME280;59485;43.542;-5.676;2023-02-12T08:47:08;102874.16;;;4.69;100.00
71638;BME280;59485;43.542;-5.676;2023-02-12T08:49:34;102881.81;;;4.77;100.00
71638;BME280;59485;43.542;-5.676;2023-02-12T08:51:59;102879.25;;;4.88;100.00
71638;BME280;59485;43.542;-5.676;2023-02-12T08:54:27;102881.47;;;4.96;100.00
71638;BME280;59485;43.542;-5.676;2023-02-12T08:56:56;102882.50;;;5.07;100.00
71638;BME280;59485;43.542;-5.676;2023-02-12T08:59:22;102878.19;;;5.17;100.00
71638;BME280;59485;43.542;-5.676;2023-02-12T09:01:48;102882.03;;;5.27;100.00
71638;BME280;59485;43.542;-5.676;2023-02-12T09:04:16;102872.25;;;5.38;100.00
71638;BME280;59485;43.542;-5.676;2023-02-12T09:06:42;102867.03;;;5.47;100.00
71638;BME280;59485;43.542;-5.676;2023-02-12T09:09:07;102872.50;;;5.60;100.00
71638;BME280;59485;43.542;-5.676;2023-02-12T09:11:33;102879.25;;;5.67;100.00
71638;BME280;59485;43.542;-5.676;2023-02-12T09:14:00;102879.50;;;5.77;100.00
71638;BME280;59485;43.542;-5.676;2023-02-12T09:16:29;102876.47;;;5.81;100.00
71638;BME280;59485;43.542;-5.676;2023-02-12T09:18:55;102878.75;;;5.87;100.00
71638;BME280;59485;43.542;-5.676;2023-02-12T09:21:21;102868.97;;;5.97;100.00
71638;BME280;59485;43.542;-5.676;2023-02-12T09:23:46;102869.72;;;6.12;100.00
71638;BME280;59485;43.542;-5.676;2023-02-12T09:26:13;102872.31;;;6.26;100.00
71638;BME280;59485;43.542;-5.676;2023-02-12T09:28:42;102872.09;;;6.42;100.00
71638;BME280;59485;43.542;-5.676;2023-02-12T09:31:08;102871.53;;;6.50;100.00
71638;BME280;59485;43.542;-5.676;2023-02-12T09:33:34;102865.91;;;6.64;100.00
71638;BME280;59485;43.542;-5.676;2023-02-12T09:36:03;102862.63;;;6.71;100.00
71638;BME280;59485;43.542;-5.676;2023-02-12T09:38:29;102859.66;;;6.87;100.00
71638;BME280;59485;43.542;-5.676;2023-02-12T09:43:35;102860.50;;;7.11;100.00
71638;BME280;59485;43.542;-5.676;2023-02-12T09:50:59;102863.13;;;7.48;100.00
71638;BME280;59485;43.542;-5.676;2023-02-12T09:53:31;102859.31;;;7.62;100.00
71638;BME280;59485;43.542;-5.676;2023-02-12T09:55:59;102865.69;;;7.73;100.00
71638;BME280;59485;43.542;-5.676;2023-02-12T09:58:45;102859.28;;;7.85;100.00
71638;BME280;59485;43.542;-5.676;2023-02-12T10:01:15;102857.28;;;7.99;100.00
71638;BME280;59485;43.542;-5.676;2023-02-12T10:03:41;102858.66;;;8.15;100.00
71638;BME280;59485;43.542;-5.676;2023-02-12T10:06:10;102858.66;;;8.26;100.00
71638;BME280;59485;43.542;-5.676;2023-02-12T10:08:44;102858.47;;;8.41;100.00
71638;BME280;59485;43.542;-5.676;2023-02-12T10:11:28;102858.56;;;8.50;100.00
71638;BME280;59485;43.542;-5.676;2023-02-12T10:16:38;102848.81;;;8.80;100.00
71638;BME280;59485;43.542;-5.676;2023-02-12T10:26:54;102844.97;;;9.14;100.00
71638;BME280;59485;43.542;-5.676;2023-02-12T10:29:28;102841.88;;;9.19;100.00
71638;BME280;59485;43.542;-5.676;2023-02-12T10:32:04;102847.06;;;9.22;100.00
71638;BME280;59485;43.542;-5.676;2023-02-12T10:34:33;102831.13;;;9.27;100.00
71638;BME280;59485;43.542;-5.676;2023-02-12T10:37:02;102834.19;;;9.33;100.00
71638;BME280;59485;43.542;-5.676;2023-02-12T10:39:34;102835.91;;;9.46;100.00
71638;BME280;59485;43.542;-5.676;2023-02-12T10:44:26;102830.81;;;9.62;100.00
71638;BME280;59485;43.542;-5.676;2023-02-12T10:46:51;102830.63;;;9.74;100.00
71638;BME280;59485;43.542;-5.676;2023-02-12T10:49:17;102823.47;;;9.83;100.00
71638;BME280;59485;43.542;-5.676;2023-02-12T10:51:57;102822.91;;;9.89;100.00
71638;BME280;59485;43.542;-5.676;2023-02-12T10:54:31;102821.84;;;10.01;100.00
71638;BME280;59485;43.542;-5.676;2023-02-12T10:56:58;102824.16;;;10.06;100.00
71638;BME280;59485;43.542;-5.676;2023-02-12T10:59:24;102831.19;;;10.20;100.00
71638;BME280;59485;43.542;-5.676;2023-02-12T11:01:49;102821.41;;;10.27;100.00
71638;BME280;59485;43.542;-5.676;2023-02-12T11:04:31;102821.00;;;10.41;100.00
71638;BME280;59485;43.542;-5.676;2023-02-12T11:07:06;102817.59;;;10.58;100.00
71638;BME280;59485;43.542;-5.676;2023-02-12T11:12:04;102817.41;;;11.00;100.00
71638;BME280;59485;43.542;-5.676;2023-02-12T11:14:46;102821.03;;;11.00;100.00
71638;BME280;59485;43.542;-5.676;2023-02-12T11:17:13;102818.41;;;10.99;100.00
71638;BME280;59485;43.542;-5.676;2023-02-12T11:19:44;102822.16;;;11.07;100.00
71638;BME280;59485;43.542;-5.676;2023-02-12T11:22:25;102816.69;;;11.26;100.00
71638;BME280;59485;43.542;-5.676;2023-02-12T11:24:52;102811.59;;;11.51;100.00
71638;BME280;59485;43.542;-5.676;2023-02-12T11:27:24;102809.72;;;11.61;100.00
71638;BME280;59485;43.542;-5.676;2023-02-12T11:32:34;102797.81;;;11.89;100.00
71638;BME280;59485;43.542;-5.676;2023-02-12T11:37:52;102806.44;;;12.04;100.00
71638;BME280;59485;43.542;-5.676;2023-02-12T11:40:29;102806.72;;;12.01;100.00
71638;BME280;59485;43.542;-5.676;2023-02-12T11:42:59;102797.91;;;12.07;100.00
71638;BME280;59485;43.542;-5.676;2023-02-12T11:45:30;102795.69;;;12.11;100.00
71638;BME280;59485;43.542;-5.676;2023-02-12T11:47:57;102788.75;;;12.16;100.00
71638;BME280;59485;43.542;-5.676;2023-02-12T11:52:48;102780.72;;;12.32;100.00
71638;BME280;59485;43.542;-5.676;2023-02-12T11:55:28;102779.78;;;12.42;100.00
71638;BME280;59485;43.542;-5.676;2023-02-12T12:05:58;102768.94;;;12.85;98.00
71638;BME280;59485;43.542;-5.676;2023-02-12T12:08:31;102755.47;;;13.00;94.05
71638;BME280;59485;43.542;-5.676;2023-02-12T12:13:24;102752.63;;;13.09;87.90
71638;BME280;59485;43.542;-5.676;2023-02-12T12:16:35;102745.56;;;13.25;84.75
71638;BME280;59485;43.542;-5.676;2023-02-12T12:19:05;102744.59;;;13.34;89.22
71638;BME280;59485;43.542;-5.676;2023-02-12T12:24:22;102738.06;;;13.35;100.00
71638;BME280;59485;43.542;-5.676;2023-02-12T12:26:52;102741.84;;;13.34;100.00
71638;BME280;59485;43.542;-5.676;2023-02-12T12:29:32;102736.69;;;13.31;100.00
71638;BME280;59485;43.542;-5.676;2023-02-12T12:32:05;102743.91;;;13.32;100.00
71638;BME280;59485;43.542;-5.676;2023-02-12T12:34:31;102731.53;;;13.36;100.00
71638;BME280;59485;43.542;-5.676;2023-02-12T12:55:20;102729.66;;;13.36;100.00
71638;BME280;59485;43.542;-5.676;2023-02-12T13:00:16;102727.41;;;13.32;100.00
71638;BME280;59485;43.542;-5.676;2023-02-12T13:08:11;102724.59;;;13.24;100.00
71638;BME280;59485;43.542;-5.676;2023-02-12T13:10:47;102722.66;;;13.24;100.00
71638;BME280;59485;43.542;-5.676;2023-02-12T13:13:23;102727.44;;;13.14;100.00
71638;BME280;59485;43.542;-5.676;2023-02-12T13:18:28;102716.47;;;13.04;100.00
71638;BME280;59485;43.542;-5.676;2023-02-12T13:28:17;102715.53;;;12.96;100.00
71638;BME280;59485;43.542;-5.676;2023-02-12T13:30:46;102718.66;;;12.83;100.00
71638;BME280;59485;43.542;-5.676;2023-02-12T13:36:09;102705.22;;;12.80;100.00
71638;BME280;59485;43.542;-5.676;2023-02-12T13:38:37;102715.34;;;12.62;100.00
71638;BME280;59485;43.542;-5.676;2023-02-12T13:41:05;102714.34;;;12.63;100.00
71638;BME280;59485;43.542;-5.676;2023-02-12T13:43:38;102704.69;;;12.59;100.00
71638;BME280;59485;43.542;-5.676;2023-02-12T13:53:53;102706.00;;;12.55;100.00
71638;BME280;59485;43.542;-5.676;2023-02-12T13:58:50;102715.53;;;12.60;100.00
71638;BME280;59485;43.542;-5.676;2023-02-12T14:04:12;102703.50;;;12.79;100.00
71638;BME280;59485;43.542;-5.676;2023-02-12T14:06:38;102689.66;;;12.71;100.00
71638;BME280;59485;43.542;-5.676;2023-02-12T14:09:07;102695.78;;;12.65;100.00
71638;BME280;59485;43.542;-5.676;2023-02-12T14:11:33;102689.56;;;12.81;100.00
71638;BME280;59485;43.542;-5.676;2023-02-12T14:14:10;102683.31;;;12.88;100.00
71638;BME280;59485;43.542;-5.676;2023-02-12T14:16:36;102676.13;;;12.95;100.00
71638;BME280;59485;43.542;-5.676;2023-02-12T14:21:47;102672.25;;;13.06;100.00
71638;BME280;59485;43.542;-5.676;2023-02-12T14:26:57;102674.25;;;13.13;100.00
71638;BME280;59485;43.542;-5.676;2023-02-12T14:29:22;102676.34;;;13.20;100.00
71638;BME280;59485;43.542;-5.676;2023-02-12T14:31:49;102669.09;;;13.19;100.00
71638;BME280;59485;43.542;-5.676;2023-02-12T14:36:41;102665.28;;;13.37;100.00
71638;BME280;59485;43.542;-5.676;2023-02-12T14:41:50;102671.75;;;13.28;100.00
71638;BME280;59485;43.542;-5.676;2023-02-12T14:46:46;102654.69;;;13.25;100.00
71638;BME280;59485;43.542;-5.676;2023-02-12T14:51:51;102654.16;;;13.21;100.00
71638;BME280;59485;43.542;-5.676;2023-02-12T14:54:22;102654.63;;;13.17;100.00
71638;BME280;59485;43.542;-5.676;2023-02-12T14:56:50;102659.41;;;13.32;100.00
71638;BME280;59485;43.542;-5.676;2023-02-12T14:59:18;102656.00;;;13.38;100.00
71638;BME280;59485;43.542;-5.676;2023-02-12T15:01:44;102657.72;;;13.39;100.00
71638;BME280;59485;43.542;-5.676;2023-02-12T15:04:11;102652.41;;;13.46;100.00
71638;BME280;59485;43.542;-5.676;2023-02-12T15:06:40;102651.69;;;13.44;100.00
71638;BME280;59485;43.542;-5.676;2023-02-12T15:09:08;102650.94;;;13.34;100.00
71638;BME280;59485;43.542;-5.676;2023-02-12T15:11:37;102648.16;;;13.26;100.00
71638;BME280;59485;43.542;-5.676;2023-02-12T15:14:14;102636.31;;;13.33;100.00
71638;BME280;59485;43.542;-5.676;2023-02-12T15:24:52;102639.75;;;13.61;100.00
71638;BME280;59485;43.542;-5.676;2023-02-12T15:27:17;102636.69;;;13.72;100.00
71638;BME280;59485;43.542;-5.676;2023-02-12T15:29:44;102630.94;;;13.92;100.00
71638;BME280;59485;43.542;-5.676;2023-02-12T15:32:26;102633.56;;;14.09;100.00
71638;BME280;59485;43.542;-5.676;2023-02-12T15:34:52;102626.59;;;14.39;100.00
71638;BME280;59485;43.542;-5.676;2023-02-12T15:39:46;102611.59;;;14.90;100.00
71638;BME280;59485;43.542;-5.676;2023-02-12T15:42:28;102612.81;;;14.80;100.00
71638;BME280;59485;43.542;-5.676;2023-02-12T15:47:34;102620.75;;;14.91;100.00
71638;BME280;59485;43.542;-5.676;2023-02-12T15:49:59;102620.88;;;15.22;100.00
71638;BME280;59485;43.542;-5.676;2023-02-12T15:52:35;102614.41;;;15.62;100.00
71638;BME280;59485;43.542;-5.676;2023-02-12T15:55:02;102605.13;;;15.30;100.00
71638;BME280;59485;43.542;-5.676;2023-02-12T15:57:29;102603.66;;;15.67;100.00
71638;BME280;59485;43.542;-5.676;2023-02-12T15:59:55;102611.34;;;15.40;100.00
71638;BME280;59485;43.542;-5.676;2023-02-12T16:02:26;102604.28;;;15.38;100.00
71638;BME280;59485;43.542;-5.676;2023-02-12T16:04:53;102613.84;;;15.11;100.00
71638;BME280;59485;43.542;-5.676;2023-02-12T16:07:18;102612.78;;;15.20;100.00
71638;BME280;59485;43.542;-5.676;2023-02-12T16:09:44;102603.63;;;15.20;100.00
71638;BME280;59485;43.542;-5.676;2023-02-12T16:12:13;102599.00;;;14.96;100.00
71638;BME280;59485;43.542;-5.676;2023-02-12T16:14:44;102607.44;;;15.11;100.00
71638;BME280;59485;43.542;-5.676;2023-02-12T16:17:27;102596.41;;;15.11;100.00
71638;BME280;59485;43.542;-5.676;2023-02-12T16:20:00;102601.59;;;14.97;100.00
71638;BME280;59485;43.542;-5.676;2023-02-12T16:22:27;102597.44;;;15.01;100.00
71638;BME280;59485;43.542;-5.676;2023-02-12T16:24:53;102597.97;;;14.97;100.00
71638;BME280;59485;43.542;-5.676;2023-02-12T16:27:24;102597.25;;;14.95;100.00
71638;BME280;59485;43.542;-5.676;2023-02-12T16:29:55;102607.47;;;15.02;100.00
71638;BME280;59485;43.542;-5.676;2023-02-12T16:42:37;102611.38;;;14.35;100.00
71638;BME280;59485;43.542;-5.676;2023-02-12T16:47:47;102616.72;;;14.20;100.00
71638;BME280;59485;43.542;-5.676;2023-02-12T16:50:13;102624.47;;;14.25;100.00
71638;BME280;59485;43.542;-5.676;2023-02-12T16:52:39;102621.72;;;14.33;100.00
71638;BME280;59485;43.542;-5.676;2023-02-12T16:55:08;102622.06;;;14.22;100.00
71638;BME280;59485;43.542;-5.676;2023-02-12T16:57:35;102630.69;;;14.35;100.00
71638;BME280;59485;43.542;-5.676;2023-02-12T17:00:02;102618.78;;;14.26;100.00
71638;BME280;59485;43.542;-5.676;2023-02-12T17:02:28;102636.72;;;14.22;100.00
71638;BME280;59485;43.542;-5.676;2023-02-12T17:04:53;102632.41;;;14.20;100.00
71638;BME280;59485;43.542;-5.676;2023-02-12T17:07:23;102645.03;;;13.88;100.00
71638;BME280;59485;43.542;-5.676;2023-02-12T17:09:49;102642.63;;;13.85;100.00
71638;BME280;59485;43.542;-5.676;2023-02-12T17:12:15;102642.28;;;13.88;100.00
71638;BME280;59485;43.542;-5.676;2023-02-12T17:14:41;102651.56;;;13.87;100.00
71638;BME280;59485;43.542;-5.676;2023-02-12T17:17:06;102651.84;;;13.68;100.00
71638;BME280;59485;43.542;-5.676;2023-02-12T17:19:32;102658.28;;;13.51;100.00
71638;BME280;59485;43.542;-5.676;2023-02-12T17:21:57;102656.75;;;13.48;100.00